sensor_id;sensor_type;location;lat;lon;timestamp;P1;durP1;ratioP1;P2;durP2;ratioP2
12224;SDS011;6175;50.956;11.064;2022-12-18T04:44:54;7.57;;;5.63;;
12224;SDS011;6175;50.956;11.064;2022-12-18T04:50:14;6.77;;;5.37;;
12224;SDS011;6175;50.956;11.064;2022-12-18T04:53:24;5.67;;;5.13;;
12224;SDS011;6175;50.956;11.064;2022-12-18T05:29:32;5.47;;;4.97;;
12224;SDS011;6175;50.956;11.064;2022-12-18T05:35:15;6.27;;;5.10;;
12224;SDS011;6175;50.956;11.064;2022-12-18T05:37:45;6.00;;;5.40;;
12224;SDS011;6175;50.956;11.064;2022-12-18T05:40:18;6.47;;;5.00;;
12224;SDS011;6175;50.956;11.064;2022-12-18T05:58:44;8.63;;;6.10;;
12224;SDS011;6175;50.956;11.064;2022-12-18T06:02:08;8.43;;;6.20;;
12224;SDS011;6175;50.956;11.064;2022-12-18T07:15:20;16.83;;;12.63;;
12224;SDS011;6175;50.956;11.064;2022-12-18T07:21:08;22.60;;;16.20;;
12224;SDS011;6175;50.956;11.064;2022-12-18T07:24:26;19.27;;;14.60;;
12224;SDS011;6175;50.956;11.064;2022-12-18T07:27:38;22.10;;;14.60;;
12224;SDS011;6175;50.956;11.064;2022-12-18T07:45:21;22.03;;;15.53;;
12224;SDS011;6175;50.956;11.064;2022-12-18T07:47:50;23.83;;;16.53;;
12224;SDS011;6175;50.956;11.064;2022-12-18T07:50:31;18.43;;;14.00;;
12224;SDS011;6175;50.956;11.064;2022-12-18T07:53:23;21.00;;;14.97;;
12224;SDS011;6175;50.956;11.064;2022-12-18T07:56:09;20.10;;;14.50;;
12224;SDS011;6175;50.956;11.064;2022-12-18T07:59:18;18.87;;;13.63;;
12224;SDS011;6175;50.956;11.064;2022-12-18T08:11:30;21.20;;;15.33;;
12224;SDS011;6175;50.956;11.064;2022-12-18T08:45:27;20.53;;;15.33;;
12224;SDS011;6175;50.956;11.064;2022-12-18T08:54:06;19.60;;;14.43;;
12224;SDS011;6175;50.956;11.064;2022-12-18T09:37:16;25.33;;;16.50;;
12224;SDS011;6175;50.956;11.064;2022-12-18T09:40:18;24.87;;;16.97;;
12224;SDS011;6175;50.956;11.064;2022-12-18T09:42:54;26.83;;;18.93;;
12224;SDS011;6175;50.956;11.064;2022-12-18T09:45:49;25.87;;;18.33;;
12224;SDS011;6175;50.956;11.064;2022-12-18T09:48:34;25.90;;;17.10;;
12224;SDS011;6175;50.956;11.064;2022-12-18T09:51:11;23.60;;;16.77;;
12224;SDS011;6175;50.956;11.064;2022-12-18T09:53:55;27.50;;;19.33;;
12224;SDS011;6175;50.956;11.064;2022-12-18T09:56:31;26.97;;;17.67;;
12224;SDS011;6175;50.956;11.064;2022-12-18T09:59:09;23.37;;;17.33;;
12224;SDS011;6175;50.956;11.064;2022-12-18T10:01:58;25.83;;;18.47;;
12224;SDS011;6175;50.956;11.064;2022-12-18T10:04:28;27.73;;;19.70;;
12224;SDS011;6175;50.956;11.064;2022-12-18T10:07:07;29.53;;;19.43;;
12224;SDS011;6175;50.956;11.064;2022-12-18T10:09:42;27.03;;;19.83;;
12224;SDS011;6175;50.956;11.064;2022-12-18T10:12:17;27.30;;;19.17;;
12224;SDS011;6175;50.956;11.064;2022-12-18T10:14:51;27.87;;;19.30;;
12224;SDS011;6175;50.956;11.064;2022-12-18T10:17:26;29.07;;;20.20;;
12224;SDS011;6175;50.956;11.064;2022-12-18T10:20:02;29.40;;;20.50;;
12224;SDS011;6175;50.956;11.064;2022-12-18T10:22:41;30.87;;;20.57;;
12224;SDS011;6175;50.956;11.064;2022-12-18T10:25:19;29.63;;;19.57;;
12224;SDS011;6175;50.956;11.064;2022-12-18T10:27:51;31.30;;;20.13;;
12224;SDS011;6175;50.956;11.064;2022-12-18T10:30:21;30.20;;;19.80;;
12224;SDS011;6175;50.956;11.064;2022-12-18T10:32:49;29.87;;;19.93;;
12224;SDS011;6175;50.956;11.064;2022-12-18T10:35:18;30.33;;;20.67;;
12224;SDS011;6175;50.956;11.064;2022-12-18T10:38:03;28.93;;;19.97;;
12224;SDS011;6175;50.956;11.064;2022-12-18T10:40:32;29.30;;;20.30;;
12224;SDS011;6175;50.956;11.064;2022-12-18T10:43:16;27.33;;;19.07;;
12224;SDS011;6175;50.956;11.064;2022-12-18T10:45:58;30.67;;;20.93;;
12224;SDS011;6175;50.956;11.064;2022-12-18T10:48:27;32.17;;;20.40;;
12224;SDS011;6175;50.956;11.064;2022-12-18T10:50:56;28.47;;;19.23;;
12224;SDS011;6175;50.956;11.064;2022-12-18T10:53:25;27.17;;;18.10;;
12224;SDS011;6175;50.956;11.064;2022-12-18T10:55:54;27.63;;;18.33;;
12224;SDS011;6175;50.956;11.064;2022-12-18T10:58:24;31.10;;;19.20;;
12224;SDS011;6175;50.956;11.064;2022-12-18T11:01:03;31.30;;;19.83;;
12224;SDS011;6175;50.956;11.064;2022-12-18T11:03:33;31.57;;;19.83;;
12224;SDS011;6175;50.956;11.064;2022-12-18T11:06:03;31.43;;;19.67;;
12224;SDS011;6175;50.956;11.064;2022-12-18T11:08:33;31.83;;;20.50;;
12224;SDS011;6175;50.956;11.064;2022-12-18T11:11:00;30.07;;;19.27;;
12224;SDS011;6175;50.956;11.064;2022-12-18T11:13:29;31.90;;;20.30;;
12224;SDS011;6175;50.956;11.064;2022-12-18T11:15:57;31.30;;;19.20;;
12224;SDS011;6175;50.956;11.064;2022-12-18T11:18:25;30.97;;;20.70;;
12224;SDS011;6175;50.956;11.064;2022-12-18T11:20:55;29.60;;;19.83;;
12224;SDS011;6175;50.956;11.064;2022-12-18T11:23:24;32.80;;;20.77;;
12224;SDS011;6175;50.956;11.064;2022-12-18T11:25:55;29.20;;;19.57;;
12224;SDS011;6175;50.956;11.064;2022-12-18T11:28:25;31.53;;;20.43;;
12224;SDS011;6175;50.956;11.064;2022-12-18T11:31:09;34.67;;;20.70;;
12224;SDS011;6175;50.956;11.064;2022-12-18T11:33:44;35.07;;;21.37;;
12224;SDS011;6175;50.956;11.064;2022-12-18T11:36:15;31.17;;;20.33;;
12224;SDS011;6175;50.956;11.064;2022-12-18T11:38:43;37.70;;;22.40;;
12224;SDS011;6175;50.956;11.064;2022-12-18T11:41:15;31.03;;;20.87;;
12224;SDS011;6175;50.956;11.064;2022-12-18T11:44:10;34.50;;;22.07;;
12224;SDS011;6175;50.956;11.064;2022-12-18T11:46:51;56.00;;;31.40;;
12224;SDS011;6175;50.956;11.064;2022-12-18T11:49:22;31.17;;;21.53;;
12224;SDS011;6175;50.956;11.064;2022-12-18T11:51:54;29.20;;;20.10;;
12224;SDS011;6175;50.956;11.064;2022-12-18T11:54:25;28.93;;;20.13;;
12224;SDS011;6175;50.956;11.064;2022-12-18T11:56:55;29.80;;;20.13;;
12224;SDS011;6175;50.956;11.064;2022-12-18T11:59:29;34.13;;;20.30;;
12224;SDS011;6175;50.956;11.064;2022-12-18T12:02:12;29.50;;;20.83;;
12224;SDS011;6175;50.956;11.064;2022-12-18T12:04:52;31.03;;;21.00;;
12224;SDS011;6175;50.956;11.064;2022-12-18T12:07:33;30.73;;;20.03;;
12224;SDS011;6175;50.956;11.064;2022-12-18T12:10:09;31.30;;;19.80;;
12224;SDS011;6175;50.956;11.064;2022-12-18T12:12:51;31.63;;;20.37;;
12224;SDS011;6175;50.956;11.064;2022-12-18T12:15:33;31.60;;;20.63;;
12224;SDS011;6175;50.956;11.064;2022-12-18T12:18:13;27.97;;;19.93;;
12224;SDS011;6175;50.956;11.064;2022-12-18T12:20:52;30.37;;;19.67;;
12224;SDS011;6175;50.956;11.064;2022-12-18T12:23:30;27.80;;;19.07;;
12224;SDS011;6175;50.956;11.064;2022-12-18T12:26:03;27.43;;;18.57;;
12224;SDS011;6175;50.956;11.064;2022-12-18T12:28:40;30.50;;;20.03;;
12224;SDS011;6175;50.956;11.064;2022-12-18T12:31:24;27.57;;;18.13;;
12224;SDS011;6175;50.956;11.064;2022-12-18T12:34:01;26.73;;;19.00;;
12224;SDS011;6175;50.956;11.064;2022-12-18T12:36:38;29.07;;;19.83;;
12224;SDS011;6175;50.956;11.064;2022-12-18T12:39:14;27.53;;;19.50;;
12224;SDS011;6175;50.956;11.064;2022-12-18T12:41:45;28.33;;;19.60;;
12224;SDS011;6175;50.956;11.064;2022-12-18T12:44:33;29.93;;;20.77;;
12224;SDS011;6175;50.956;11.064;2022-12-18T12:47:07;29.23;;;19.63;;
12224;SDS011;6175;50.956;11.064;2022-12-18T12:49:39;29.83;;;20.30;;
12224;SDS011;6175;50.956;11.064;2022-12-18T12:52:13;32.93;;;22.50;;
12224;SDS011;6175;50.956;11.064;2022-12-18T12:54:44;30.17;;;19.80;;
12224;SDS011;6175;50.956;11.064;2022-12-18T12:57:13;29.03;;;19.73;;
12224;SDS011;6175;50.956;11.064;2022-12-18T12:59:49;31.03;;;20.20;;
12224;SDS011;6175;50.956;11.064;2022-12-18T13:02:26;29.80;;;19.57;;
12224;SDS011;6175;50.956;11.064;2022-12-18T13:04:59;27.50;;;18.87;;
12224;SDS011;6175;50.956;11.064;2022-12-18T13:07:34;29.40;;;19.80;;
12224;SDS011;6175;50.956;11.064;2022-12-18T13:10:22;28.50;;;19.27;;
12224;SDS011;6175;50.956;11.064;2022-12-18T13:12:52;27.37;;;18.33;;
12224;SDS011;6175;50.956;11.064;2022-12-18T13:15:24;27.73;;;19.10;;
12224;SDS011;6175;50.956;11.064;2022-12-18T13:18:11;31.27;;;19.57;;
12224;SDS011;6175;50.956;11.064;2022-12-18T13:20:42;27.80;;;19.50;;
12224;SDS011;6175;50.956;11.064;2022-12-18T13:23:30;27.17;;;18.97;;
12224;SDS011;6175;50.956;11.064;2022-12-18T13:25:59;31.83;;;20.43;;
12224;SDS011;6175;50.956;11.064;2022-12-18T13:28:51;27.57;;;20.30;;
12224;SDS011;6175;50.956;11.064;2022-12-18T13:34:25;26.37;;;18.43;;
12224;SDS011;6175;50.956;11.064;2022-12-18T13:36:55;28.57;;;19.87;;
12224;SDS011;6175;50.956;11.064;2022-12-18T13:39:25;27.47;;;19.10;;
12224;SDS011;6175;50.956;11.064;2022-12-18T13:45:40;27.17;;;18.43;;
12224;SDS011;6175;50.956;11.064;2022-12-18T13:48:19;25.17;;;18.10;;
12224;SDS011;6175;50.956;11.064;2022-12-18T13:50:49;30.60;;;20.67;;
12224;SDS011;6175;50.956;11.064;2022-12-18T13:53:21;31.73;;;21.43;;
12224;SDS011;6175;50.956;11.064;2022-12-18T13:55:52;34.43;;;21.80;;
12224;SDS011;6175;50.956;11.064;2022-12-18T13:58:20;27.30;;;19.40;;
12224;SDS011;6175;50.956;11.064;2022-12-18T14:00:47;33.80;;;21.40;;
12224;SDS011;6175;50.956;11.064;2022-12-18T14:03:16;37.00;;;23.60;;
12224;SDS011;6175;50.956;11.064;2022-12-18T14:05:47;28.73;;;19.70;;
12224;SDS011;6175;50.956;11.064;2022-12-18T14:08:20;25.33;;;18.50;;
12224;SDS011;6175;50.956;11.064;2022-12-18T14:10:48;23.60;;;16.90;;
12224;SDS011;6175;50.956;11.064;2022-12-18T14:13:19;23.63;;;16.33;;
12224;SDS011;6175;50.956;11.064;2022-12-18T14:15:50;22.67;;;15.77;;
12224;SDS011;6175;50.956;11.064;2022-12-18T14:18:21;26.07;;;18.07;;
12224;SDS011;6175;50.956;11.064;2022-12-18T14:20:51;33.43;;;19.70;;
12224;SDS011;6175;50.956;11.064;2022-12-18T14:23:29;25.70;;;18.10;;
12224;SDS011;6175;50.956;11.064;2022-12-18T14:25:58;29.23;;;18.53;;
12224;SDS011;6175;50.956;11.064;2022-12-18T14:28:26;28.73;;;18.00;;
12224;SDS011;6175;50.956;11.064;2022-12-18T14:30:54;27.40;;;17.07;;
12224;SDS011;6175;50.956;11.064;2022-12-18T14:33:24;24.80;;;17.40;;
12224;SDS011;6175;50.956;11.064;2022-12-18T14:35:54;24.10;;;15.73;;
12224;SDS011;6175;50.956;11.064;2022-12-18T14:38:25;23.13;;;15.83;;
12224;SDS011;6175;50.956;11.064;2022-12-18T14:40:57;25.60;;;18.57;;
12224;SDS011;6175;50.956;11.064;2022-12-18T14:43:25;24.20;;;16.87;;
12224;SDS011;6175;50.956;11.064;2022-12-18T14:45:54;28.93;;;19.13;;
12224;SDS011;6175;50.956;11.064;2022-12-18T14:48:24;28.30;;;18.13;;
12224;SDS011;6175;50.956;11.064;2022-12-18T14:51:01;27.17;;;17.37;;
12224;SDS011;6175;50.956;11.064;2022-12-18T14:53:32;28.37;;;19.20;;
12224;SDS011;6175;50.956;11.064;2022-12-18T14:56:11;37.70;;;24.73;;
12224;SDS011;6175;50.956;11.064;2022-12-18T14:58:44;40.73;;;26.70;;
12224;SDS011;6175;50.956;11.064;2022-12-18T15:01:19;38.50;;;28.47;;
12224;SDS011;6175;50.956;11.064;2022-12-18T15:03:50;34.67;;;24.20;;
12224;SDS011;6175;50.956;11.064;2022-12-18T15:06:23;33.20;;;21.37;;
12224;SDS011;6175;50.956;11.064;2022-12-18T15:08:56;27.80;;;18.07;;
12224;SDS011;6175;50.956;11.064;2022-12-18T15:11:30;26.70;;;18.50;;
12224;SDS011;6175;50.956;11.064;2022-12-18T15:16:50;28.23;;;19.13;;
12224;SDS011;6175;50.956;11.064;2022-12-18T15:19:20;24.73;;;17.87;;
12224;SDS011;6175;50.956;11.064;2022-12-18T15:21:51;28.33;;;19.70;;
12224;SDS011;6175;50.956;11.064;2022-12-18T15:24:18;30.60;;;19.37;;
12224;SDS011;6175;50.956;11.064;2022-12-18T15:26:50;26.97;;;18.37;;
12224;SDS011;6175;50.956;11.064;2022-12-18T15:29:18;27.03;;;18.70;;
12224;SDS011;6175;50.956;11.064;2022-12-18T15:32:00;30.13;;;19.23;;
12224;SDS011;6175;50.956;11.064;2022-12-18T15:34:30;26.90;;;18.63;;
12224;SDS011;6175;50.956;11.064;2022-12-18T15:36:59;28.47;;;20.00;;
12224;SDS011;6175;50.956;11.064;2022-12-18T15:39:26;27.43;;;18.63;;
12224;SDS011;6175;50.956;11.064;2022-12-18T15:41:53;28.53;;;19.63;;
12224;SDS011;6175;50.956;11.064;2022-12-18T15:44:38;29.87;;;19.73;;
12224;SDS011;6175;50.956;11.064;2022-12-18T15:47:08;27.40;;;18.57;;
12224;SDS011;6175;50.956;11.064;2022-12-18T15:49:39;30.30;;;19.73;;
12224;SDS011;6175;50.956;11.064;2022-12-18T15:52:08;26.23;;;18.03;;
12224;SDS011;6175;50.956;11.064;2022-12-18T15:54:38;27.67;;;17.93;;
12224;SDS011;6175;50.956;11.064;2022-12-18T15:57:23;30.83;;;20.50;;
12224;SDS011;6175;50.956;11.064;2022-12-18T15:59:50;30.73;;;19.33;;
12224;SDS011;6175;50.956;11.064;2022-12-18T16:02:19;29.60;;;19.33;;
12224;SDS011;6175;50.956;11.064;2022-12-18T16:04:50;28.40;;;18.57;;
12224;SDS011;6175;50.956;11.064;2022-12-18T16:07:19;27.37;;;17.77;;
12224;SDS011;6175;50.956;11.064;2022-12-18T16:09:46;30.40;;;19.83;;
12224;SDS011;6175;50.956;11.064;2022-12-18T16:12:17;33.83;;;22.33;;
12224;SDS011;6175;50.956;11.064;2022-12-18T16:14:46;29.73;;;19.37;;
12224;SDS011;6175;50.956;11.064;2022-12-18T16:17:14;29.50;;;19.93;;
12224;SDS011;6175;50.956;11.064;2022-12-18T16:19:41;30.17;;;19.93;;
12224;SDS011;6175;50.956;11.064;2022-12-18T16:22:18;29.37;;;18.57;;
12224;SDS011;6175;50.956;11.064;2022-12-18T16:24:47;29.70;;;19.57;;
12224;SDS011;6175;50.956;11.064;2022-12-18T16:27:15;28.03;;;19.00;;
12224;SDS011;6175;50.956;11.064;2022-12-18T16:29:41;29.23;;;19.13;;
12224;SDS011;6175;50.956;11.064;2022-12-18T16:32:10;29.97;;;19.10;;
12224;SDS011;6175;50.956;11.064;2022-12-18T16:34:40;27.80;;;18.03;;
12224;SDS011;6175;50.956;11.064;2022-12-18T16:37:08;27.30;;;18.27;;
12224;SDS011;6175;50.956;11.064;2022-12-18T16:39:37;30.40;;;19.33;;
12224;SDS011;6175;50.956;11.064;2022-12-18T16:42:05;27.90;;;19.40;;
12224;SDS011;6175;50.956;11.064;2022-12-18T16:44:37;28.80;;;19.20;;
12224;SDS011;6175;50.956;11.064;2022-12-18T16:47:05;33.03;;;20.73;;
12224;SDS011;6175;50.956;11.064;2022-12-18T16:49:32;31.93;;;19.60;;
12224;SDS011;6175;50.956;11.064;2022-12-18T16:52:00;26.77;;;17.80;;
12224;SDS011;6175;50.956;11.064;2022-12-18T16:54:27;30.67;;;20.53;;
12224;SDS011;6175;50.956;11.064;2022-12-18T16:56:56;30.27;;;19.53;;
12224;SDS011;6175;50.956;11.064;2022-12-18T16:59:25;27.30;;;18.73;;
12224;SDS011;6175;50.956;11.064;2022-12-18T17:01:53;26.63;;;18.93;;
12224;SDS011;6175;50.956;11.064;2022-12-18T17:04:21;32.10;;;19.50;;
12224;SDS011;6175;50.956;11.064;2022-12-18T17:06:48;30.83;;;20.67;;
12224;SDS011;6175;50.956;11.064;2022-12-18T17:09:18;34.63;;;21.73;;
12224;SDS011;6175;50.956;11.064;2022-12-18T17:11:48;31.53;;;20.93;;
12224;SDS011;6175;50.956;11.064;2022-12-18T17:14:17;32.47;;;19.53;;
12224;SDS011;6175;50.956;11.064;2022-12-18T17:16:45;29.73;;;20.33;;
12224;SDS011;6175;50.956;11.064;2022-12-18T17:19:13;32.47;;;18.83;;
12224;SDS011;6175;50.956;11.064;2022-12-18T17:21:41;35.07;;;22.10;;
12224;SDS011;6175;50.956;11.064;2022-12-18T17:24:08;33.93;;;20.97;;
12224;SDS011;6175;50.956;11.064;2022-12-18T17:26:36;32.77;;;21.33;;
12224;SDS011;6175;50.956;11.064;2022-12-18T17:29:03;39.30;;;22.93;;
12224;SDS011;6175;50.956;11.064;2022-12-18T17:31:32;39.17;;;23.70;;
12224;SDS011;6175;50.956;11.064;2022-12-18T17:34:00;34.43;;;22.07;;
12224;SDS011;6175;50.956;11.064;2022-12-18T17:36:27;34.33;;;22.40;;
12224;SDS011;6175;50.956;11.064;2022-12-18T17:38:57;34.57;;;21.83;;
12224;SDS011;6175;50.956;11.064;2022-12-18T17:41:26;36.70;;;22.77;;
12224;SDS011;6175;50.956;11.064;2022-12-18T17:43:55;36.63;;;23.10;;
12224;SDS011;6175;50.956;11.064;2022-12-18T17:46:24;33.93;;;22.07;;
12224;SDS011;6175;50.956;11.064;2022-12-18T17:48:55;34.03;;;22.00;;
12224;SDS011;6175;50.956;11.064;2022-12-18T17:51:22;32.73;;;21.67;;
12224;SDS011;6175;50.956;11.064;2022-12-18T17:53:49;33.53;;;21.43;;
12224;SDS011;6175;50.956;11.064;2022-12-18T17:56:18;32.87;;;21.33;;
12224;SDS011;6175;50.956;11.064;2022-12-18T17:58:46;38.27;;;22.70;;
12224;SDS011;6175;50.956;11.064;2022-12-18T18:01:15;31.87;;;20.07;;
12224;SDS011;6175;50.956;11.064;2022-12-18T18:03:43;30.43;;;20.53;;
12224;SDS011;6175;50.956;11.064;2022-12-18T18:06:12;33.90;;;21.23;;
12224;SDS011;6175;50.956;11.064;2022-12-18T18:08:40;33.07;;;21.27;;
12224;SDS011;6175;50.956;11.064;2022-12-18T18:11:09;35.73;;;21.20;;
12224;SDS011;6175;50.956;11.064;2022-12-18T18:13:54;40.63;;;25.23;;
12224;SDS011;6175;50.956;11.064;2022-12-18T18:16:30;36.67;;;22.73;;
12224;SDS011;6175;50.956;11.064;2022-12-18T18:19:00;32.53;;;22.77;;
12224;SDS011;6175;50.956;11.064;2022-12-18T18:21:34;33.33;;;22.67;;
12224;SDS011;6175;50.956;11.064;2022-12-18T18:24:03;38.80;;;22.57;;
12224;SDS011;6175;50.956;11.064;2022-12-18T18:26:31;34.57;;;22.13;;
12224;SDS011;6175;50.956;11.064;2022-12-18T18:29:00;31.07;;;20.07;;
12224;SDS011;6175;50.956;11.064;2022-12-18T18:31:28;34.03;;;21.17;;
12224;SDS011;6175;50.956;11.064;2022-12-18T18:33:56;33.67;;;20.93;;
12224;SDS011;6175;50.956;11.064;2022-12-18T18:36:24;35.13;;;22.13;;
12224;SDS011;6175;50.956;11.064;2022-12-18T18:38:52;33.53;;;22.30;;
12224;SDS011;6175;50.956;11.064;2022-12-18T18:41:20;35.43;;;22.77;;
12224;SDS011;6175;50.956;11.064;2022-12-18T18:43:48;37.20;;;22.43;;
12224;SDS011;6175;50.956;11.064;2022-12-18T18:46:20;32.37;;;21.67;;
12224;SDS011;6175;50.956;11.064;2022-12-18T18:48:47;35.93;;;23.10;;
12224;SDS011;6175;50.956;11.064;2022-12-18T18:51:15;36.20;;;23.43;;
12224;SDS011;6175;50.956;11.064;2022-12-18T18:53:44;45.90;;;28.17;;
12224;SDS011;6175;50.956;11.064;2022-12-18T18:56:14;45.57;;;27.20;;
12224;SDS011;6175;50.956;11.064;2022-12-18T18:58:42;44.57;;;27.07;;
12224;SDS011;6175;50.956;11.064;2022-12-18T19:01:10;46.40;;;27.40;;
12224;SDS011;6175;50.956;11.064;2022-12-18T19:03:39;38.70;;;23.93;;
12224;SDS011;6175;50.956;11.064;2022-12-18T19:06:06;34.67;;;22.90;;
12224;SDS011;6175;50.956;11.064;2022-12-18T19:08:37;37.73;;;24.03;;
12224;SDS011;6175;50.956;11.064;2022-12-18T19:11:05;36.20;;;23.10;;
12224;SDS011;6175;50.956;11.064;2022-12-18T19:13:55;34.47;;;23.83;;
12224;SDS011;6175;50.956;11.064;2022-12-18T19:16:22;35.43;;;23.27;;
12224;SDS011;6175;50.956;11.064;2022-12-18T19:18:49;35.17;;;23.03;;
12224;SDS011;6175;50.956;11.064;2022-12-18T19:21:16;38.20;;;23.03;;
12224;SDS011;6175;50.956;11.064;2022-12-18T19:23:44;33.23;;;22.60;;
12224;SDS011;6175;50.956;11.064;2022-12-18T19:26:13;33.70;;;22.97;;
12224;SDS011;6175;50.956;11.064;2022-12-18T19:28:41;32.07;;;22.43;;
12224;SDS011;6175;50.956;11.064;2022-12-18T19:31:11;33.67;;;22.93;;
12224;SDS011;6175;50.956;11.064;2022-12-18T19:33:42;31.07;;;20.60;;
12224;SDS011;6175;50.956;11.064;2022-12-18T19:36:11;32.13;;;21.73;;
12224;SDS011;6175;50.956;11.064;2022-12-18T19:38:40;34.83;;;23.17;;
12224;SDS011;6175;50.956;11.064;2022-12-18T19:41:08;40.60;;;25.97;;
12224;SDS011;6175;50.956;11.064;2022-12-18T19:43:35;34.70;;;22.40;;
12224;SDS011;6175;50.956;11.064;2022-12-18T19:46:04;34.57;;;22.03;;
12224;SDS011;6175;50.956;11.064;2022-12-18T19:48:33;34.90;;;22.87;;
12224;SDS011;6175;50.956;11.064;2022-12-18T19:51:03;38.57;;;23.37;;
12224;SDS011;6175;50.956;11.064;2022-12-18T19:53:31;39.17;;;24.37;;
12224;SDS011;6175;50.956;11.064;2022-12-18T19:56:00;56.57;;;31.33;;
12224;SDS011;6175;50.956;11.064;2022-12-18T19:58:31;50.70;;;29.40;;
12224;SDS011;6175;50.956;11.064;2022-12-18T20:00:58;47.87;;;28.23;;
12224;SDS011;6175;50.956;11.064;2022-12-18T20:03:25;39.27;;;25.17;;
12224;SDS011;6175;50.956;11.064;2022-12-18T20:05:54;37.73;;;24.30;;
12224;SDS011;6175;50.956;11.064;2022-12-18T20:08:21;34.93;;;22.37;;
12224;SDS011;6175;50.956;11.064;2022-12-18T20:10:48;36.10;;;24.23;;
12224;SDS011;6175;50.956;11.064;2022-12-18T20:13:15;36.63;;;23.13;;
12224;SDS011;6175;50.956;11.064;2022-12-18T20:15:42;37.00;;;24.37;;
12224;SDS011;6175;50.956;11.064;2022-12-18T20:18:09;37.37;;;23.03;;
12224;SDS011;6175;50.956;11.064;2022-12-18T20:20:37;34.77;;;23.23;;
12224;SDS011;6175;50.956;11.064;2022-12-18T20:23:05;33.27;;;22.70;;
12224;SDS011;6175;50.956;11.064;2022-12-18T20:25:32;35.70;;;22.53;;
12224;SDS011;6175;50.956;11.064;2022-12-18T20:28:00;33.13;;;21.43;;
12224;SDS011;6175;50.956;11.064;2022-12-18T20:30:27;32.97;;;22.23;;
12224;SDS011;6175;50.956;11.064;2022-12-18T20:32:54;33.97;;;22.80;;
12224;SDS011;6175;50.956;11.064;2022-12-18T20:35:21;33.30;;;22.50;;
12224;SDS011;6175;50.956;11.064;2022-12-18T20:37:52;34.47;;;22.87;;
12224;SDS011;6175;50.956;11.064;2022-12-18T20:40:21;33.37;;;22.13;;
12224;SDS011;6175;50.956;11.064;2022-12-18T20:42:48;35.50;;;23.70;;
12224;SDS011;6175;50.956;11.064;2022-12-18T20:45:16;36.53;;;24.30;;
12224;SDS011;6175;50.956;11.064;2022-12-18T20:47:43;36.70;;;22.27;;
12224;SDS011;6175;50.956;11.064;2022-12-18T20:50:10;31.53;;;21.33;;
12224;SDS011;6175;50.956;11.064;2022-12-18T20:52:38;36.77;;;22.60;;
12224;SDS011;6175;50.956;11.064;2022-12-18T20:55:05;31.80;;;20.20;;
12224;SDS011;6175;50.956;11.064;2022-12-18T20:57:34;33.13;;;20.70;;
12224;SDS011;6175;50.956;11.064;2022-12-18T21:00:03;28.23;;;20.33;;
12224;SDS011;6175;50.956;11.064;2022-12-18T21:02:30;36.30;;;23.20;;
12224;SDS011;6175;50.956;11.064;2022-12-18T21:04:57;31.07;;;20.33;;
12224;SDS011;6175;50.956;11.064;2022-12-18T21:07:25;31.40;;;20.50;;
12224;SDS011;6175;50.956;11.064;2022-12-18T21:09:52;36.73;;;21.47;;
12224;SDS011;6175;50.956;11.064;2022-12-18T21:12:19;31.90;;;22.37;;
12224;SDS011;6175;50.956;11.064;2022-12-18T21:15:07;31.80;;;20.07;;
12224;SDS011;6175;50.956;11.064;2022-12-18T21:17:35;30.57;;;20.97;;
12224;SDS011;6175;50.956;11.064;2022-12-18T21:20:02;27.80;;;18.90;;
12224;SDS011;6175;50.956;11.064;2022-12-18T21:22:30;27.90;;;19.63;;
12224;SDS011;6175;50.956;11.064;2022-12-18T21:24:57;28.27;;;19.40;;
12224;SDS011;6175;50.956;11.064;2022-12-18T21:27:24;29.23;;;20.23;;
12224;SDS011;6175;50.956;11.064;2022-12-18T21:29:51;35.00;;;22.07;;
12224;SDS011;6175;50.956;11.064;2022-12-18T21:32:20;31.63;;;21.53;;
12224;SDS011;6175;50.956;11.064;2022-12-18T21:34:47;31.30;;;20.70;;
12224;SDS011;6175;50.956;11.064;2022-12-18T21:37:14;34.77;;;21.50;;
12224;SDS011;6175;50.956;11.064;2022-12-18T21:39:41;34.60;;;21.40;;
12224;SDS011;6175;50.956;11.064;2022-12-18T21:42:08;35.40;;;21.13;;
12224;SDS011;6175;50.956;11.064;2022-12-18T21:44:54;33.53;;;21.33;;
12224;SDS011;6175;50.956;11.064;2022-12-18T21:47:23;28.30;;;20.27;;
12224;SDS011;6175;50.956;11.064;2022-12-18T21:49:50;35.17;;;21.83;;
12224;SDS011;6175;50.956;11.064;2022-12-18T21:52:17;35.57;;;22.10;;
12224;SDS011;6175;50.956;11.064;2022-12-18T21:54:45;37.03;;;23.07;;
12224;SDS011;6175;50.956;11.064;2022-12-18T21:57:12;35.80;;;21.33;;
12224;SDS011;6175;50.956;11.064;2022-12-18T21:59:40;31.23;;;20.93;;
12224;SDS011;6175;50.956;11.064;2022-12-18T22:02:11;32.80;;;21.07;;
12224;SDS011;6175;50.956;11.064;2022-12-18T22:04:42;35.00;;;22.63;;
12224;SDS011;6175;50.956;11.064;2022-12-18T22:07:10;31.73;;;21.10;;
12224;SDS011;6175;50.956;11.064;2022-12-18T22:09:37;33.30;;;20.47;;
12224;SDS011;6175;50.956;11.064;2022-12-18T22:12:05;29.47;;;20.20;;
12224;SDS011;6175;50.956;11.064;2022-12-18T22:14:33;31.97;;;20.93;;
12224;SDS011;6175;50.956;11.064;2022-12-18T22:17:00;30.90;;;21.27;;
12224;SDS011;6175;50.956;11.064;2022-12-18T22:19:27;26.93;;;19.27;;
12224;SDS011;6175;50.956;11.064;2022-12-18T22:21:56;29.33;;;19.63;;
12224;SDS011;6175;50.956;11.064;2022-12-18T22:24:23;28.50;;;19.10;;
12224;SDS011;6175;50.956;11.064;2022-12-18T22:26:53;29.23;;;19.20;;
12224;SDS011;6175;50.956;11.064;2022-12-18T22:29:22;29.43;;;19.37;;
12224;SDS011;6175;50.956;11.064;2022-12-18T22:32:08;27.23;;;19.60;;
12224;SDS011;6175;50.956;11.064;2022-12-18T22:34:37;28.70;;;19.20;;
12224;SDS011;6175;50.956;11.064;2022-12-18T22:37:05;26.43;;;18.43;;
12224;SDS011;6175;50.956;11.064;2022-12-18T22:39:32;28.73;;;20.00;;
12224;SDS011;6175;50.956;11.064;2022-12-18T22:41:59;35.17;;;21.67;;
12224;SDS011;6175;50.956;11.064;2022-12-18T22:44:26;34.20;;;21.73;;
12224;SDS011;6175;50.956;11.064;2022-12-18T22:46:54;34.63;;;21.93;;
12224;SDS011;6175;50.956;11.064;2022-12-18T22:49:22;28.73;;;19.73;;
12224;SDS011;6175;50.956;11.064;2022-12-18T22:51:50;33.77;;;21.80;;
12224;SDS011;6175;50.956;11.064;2022-12-18T22:54:19;30.57;;;20.63;;
12224;SDS011;6175;50.956;11.064;2022-12-18T22:56:47;32.60;;;19.63;;
12224;SDS011;6175;50.956;11.064;2022-12-18T22:59:14;28.27;;;19.03;;
12224;SDS011;6175;50.956;11.064;2022-12-18T23:01:43;26.50;;;18.90;;
12224;SDS011;6175;50.956;11.064;2022-12-18T23:04:11;27.63;;;19.17;;
12224;SDS011;6175;50.956;11.064;2022-12-18T23:06:38;25.87;;;18.83;;
12224;SDS011;6175;50.956;11.064;2022-12-18T23:09:05;27.47;;;19.23;;
12224;SDS011;6175;50.956;11.064;2022-12-18T23:11:34;27.63;;;18.60;;
12224;SDS011;6175;50.956;11.064;2022-12-18T23:14:01;28.23;;;19.77;;
12224;SDS011;6175;50.956;11.064;2022-12-18T23:16:29;28.53;;;19.57;;
12224;SDS011;6175;50.956;11.064;2022-12-18T23:18:56;30.63;;;19.33;;
12224;SDS011;6175;50.956;11.064;2022-12-18T23:21:23;26.37;;;18.53;;
12224;SDS011;6175;50.956;11.064;2022-12-18T23:23:50;31.07;;;20.30;;
12224;SDS011;6175;50.956;11.064;2022-12-18T23:26:18;34.53;;;22.47;;
12224;SDS011;6175;50.956;11.064;2022-12-18T23:28:49;30.43;;;20.83;;
12224;SDS011;6175;50.956;11.064;2022-12-18T23:31:18;31.03;;;21.20;;
12224;SDS011;6175;50.956;11.064;2022-12-18T23:33:46;30.73;;;19.90;;